createdAt,value
2023-11-18T00:00:12.485Z,68.60
2023-11-18T00:02:40.394Z,68.50
2023-11-18T00:05:09.010Z,68.00
2023-11-18T00:07:36.648Z,67.90
2023-11-18T00:10:05.764Z,67.60
2023-11-18T00:12:35.892Z,67.30
2023-11-18T00:15:06.643Z,66.70
2023-11-18T00:17:34.008Z,66.50
2023-11-18T00:20:01.537Z,66.60
2023-11-18T00:22:29.345Z,66.80
2023-11-18T00:24:56.608Z,67.10
2023-11-18T00:27:24.077Z,67.10
2023-11-18T00:29:51.411Z,67.00
2023-11-18T00:32:18.769Z,67.00
2023-11-18T00:34:46.428Z,67.30
2023-11-18T00:37:13.707Z,67.40
2023-11-18T00:39:41.063Z,67.60
2023-11-18T00:42:08.242Z,67.80
2023-11-18T00:44:35.614Z,68.10
2023-11-18T00:47:04.066Z,68.20
2023-11-18T00:49:31.479Z,68.60
2023-11-18T00:51:58.716Z,68.80
2023-11-18T00:54:26.497Z,69.10
2023-11-18T00:56:53.875Z,69.50
2023-11-18T00:59:21.483Z,69.80
2023-11-18T01:01:50.273Z,69.90
2023-11-18T01:04:18.240Z,70.10
2023-11-18T01:06:45.483Z,70.30
2023-11-18T01:09:13.426Z,70.60
2023-11-18T01:11:40.666Z,71.00
2023-11-18T01:14:27.955Z,71.30
2023-11-18T01:16:55.239Z,71.50
2023-11-18T01:19:22.485Z,71.60
2023-11-18T01:21:49.723Z,71.70
2023-11-18T01:24:17.521Z,71.70
2023-11-18T01:26:46.863Z,71.70
2023-11-18T01:29:14.943Z,71.40
2023-11-18T01:31:52.050Z,71.30
2023-11-18T01:34:24.058Z,71.30
2023-11-18T01:36:51.820Z,71.30
2023-11-18T01:39:19.565Z,71.40
2023-11-18T01:41:47.396Z,71.50
2023-11-18T01:44:18.972Z,71.50
2023-11-18T01:46:47.219Z,71.60
2023-11-18T01:49:15.792Z,71.80
2023-11-18T01:51:47.929Z,72.10
2023-11-18T01:54:17.332Z,72.40
2023-11-18T01:56:51.287Z,72.60
2023-11-18T01:59:21.418Z,72.70
2023-11-18T02:02:00.831Z,72.60
2023-11-18T02:04:29.398Z,72.50
2023-11-18T02:06:57.436Z,72.20
2023-11-18T02:09:31.948Z,71.60
2023-11-18T02:12:42.710Z,71.00
2023-11-18T02:15:11.538Z,70.00
2023-11-18T02:17:40.192Z,69.30
2023-11-18T02:20:15.177Z,68.70
2023-11-18T02:22:44.478Z,68.70
2023-11-18T02:25:16.418Z,68.40
2023-11-18T02:27:44.304Z,68.20
2023-11-18T02:30:14.225Z,67.80
2023-11-18T02:32:55.090Z,67.40
2023-11-18T02:35:27.723Z,66.90
2023-11-18T02:37:56.586Z,66.60
2023-11-18T02:40:36.820Z,66.20
2023-11-18T02:43:10.669Z,65.70
2023-11-18T02:45:39.054Z,65.60
2023-11-18T02:48:08.024Z,65.40
2023-11-18T02:50:39.608Z,64.90
2023-11-18T02:53:07.159Z,64.70
2023-11-18T02:55:34.488Z,64.70
2023-11-18T02:58:06.637Z,64.30
2023-11-18T03:00:35.364Z,63.80
2023-11-18T03:03:04.432Z,63.10
2023-11-18T03:05:32.350Z,62.60
2023-11-18T03:07:59.862Z,61.50
2023-11-18T03:10:27.593Z,61.50
2023-11-18T03:12:55.617Z,61.70
2023-11-18T03:15:24.314Z,62.20
2023-11-18T03:17:53.105Z,62.60
2023-11-18T03:20:24.402Z,62.50
2023-11-18T03:22:53.292Z,62.00
2023-11-18T03:25:23.475Z,61.90
2023-11-18T03:27:51.136Z,61.90
2023-11-18T03:30:18.581Z,61.00
2023-11-18T03:32:46.680Z,60.90
2023-11-18T03:35:14.217Z,61.40
2023-11-18T03:37:43.190Z,61.60
2023-11-18T03:40:15.642Z,61.30
2023-11-18T03:42:43.825Z,61.50
2023-11-18T03:45:11.644Z,61.20
2023-11-18T03:47:39.519Z,60.70
2023-11-18T03:50:10.054Z,60.80
2023-11-18T03:52:39.479Z,60.80
2023-11-18T03:55:07.819Z,60.40
2023-11-18T03:57:35.458Z,60.10
2023-11-18T04:00:04.153Z,59.10
2023-11-18T04:02:37.787Z,58.20
2023-11-18T04:05:05.730Z,57.00
2023-11-18T04:07:33.177Z,55.70
2023-11-18T04:10:01.635Z,53.70
2023-11-18T04:12:28.916Z,53.20
2023-11-18T04:14:56.329Z,53.40
2023-11-18T04:17:23.665Z,53.60
2023-11-18T04:19:51.045Z,53.50
2023-11-18T04:22:20.137Z,52.20
2023-11-18T04:24:47.434Z,51.60
2023-11-18T04:27:14.969Z,50.60
2023-11-18T04:29:42.285Z,50.70
2023-11-18T04:32:15.351Z,50.20
2023-11-18T04:34:43.924Z,51.90
2023-11-18T04:37:11.491Z,56.50
2023-11-18T04:39:38.929Z,58.90
2023-11-18T04:42:06.245Z,60.00
2023-11-18T04:44:33.596Z,60.60
2023-11-18T04:47:01.087Z,61.30
2023-11-18T04:49:28.602Z,61.20
2023-11-18T04:51:56.052Z,61.90
2023-11-18T04:54:23.363Z,62.20
2023-11-18T04:56:50.566Z,62.40
2023-11-18T04:59:19.030Z,62.00
2023-11-18T05:01:46.887Z,61.20
2023-11-18T05:04:14.300Z,60.60
2023-11-18T05:06:41.529Z,58.80
2023-11-18T05:09:09.078Z,58.10
2023-11-18T05:11:37.075Z,58.60
2023-11-18T05:14:04.818Z,59.20
2023-11-18T05:16:32.875Z,59.10
2023-11-18T05:19:00.120Z,58.90
2023-11-18T05:21:27.434Z,59.10
2023-11-18T05:23:54.796Z,59.00
2023-11-18T05:26:22.078Z,59.30
2023-11-18T05:28:50.300Z,59.60
2023-11-18T05:31:18.024Z,59.70
2023-11-18T05:33:53.257Z,60.00
2023-11-18T05:36:28.185Z,60.30
2023-11-18T05:38:56.525Z,60.80
2023-11-18T05:41:33.202Z,60.70
2023-11-18T05:44:00.697Z,60.90
2023-11-18T05:46:31.424Z,60.80
2023-11-18T05:49:03.102Z,61.00
2023-11-18T05:51:30.590Z,60.20
2023-11-18T05:53:58.018Z,60.00
2023-11-18T05:56:26.236Z,59.50
2023-11-18T05:58:56.884Z,60.00
2023-11-18T06:01:25.200Z,59.50
2023-11-18T06:03:52.778Z,59.70
2023-11-18T06:06:24.421Z,59.90
2023-11-18T06:08:53.236Z,59.90
2023-11-18T06:11:21.202Z,59.70
2023-11-18T06:13:53.078Z,59.60
2023-11-18T06:16:25.761Z,59.10
2023-11-18T06:18:59.076Z,57.90
2023-11-18T06:21:32.428Z,55.80
2023-11-18T06:24:01.146Z,55.40
2023-11-18T06:26:29.150Z,55.10
2023-11-18T06:28:57.931Z,54.90
2023-11-18T06:31:25.860Z,54.70
2023-11-18T06:33:54.046Z,55.30
2023-11-18T06:36:27.750Z,54.90
2023-11-18T06:38:55.462Z,55.50
2023-11-18T06:41:36.342Z,56.20
2023-11-18T06:44:10.731Z,56.60
2023-11-18T06:46:41.570Z,57.40
2023-11-18T06:49:12.662Z,57.60
2023-11-18T06:51:40.408Z,57.70
2023-11-18T06:54:12.011Z,58.00
2023-11-18T06:56:40.733Z,57.80
2023-11-18T06:59:08.407Z,57.40
2023-11-18T07:01:37.228Z,57.40
2023-11-18T07:04:04.954Z,57.10
2023-11-18T07:06:32.518Z,56.90
2023-11-18T07:09:01.950Z,56.70
2023-11-18T07:11:29.898Z,56.00
2023-11-18T07:13:58.481Z,56.00
2023-11-18T07:16:27.883Z,56.20
2023-11-18T07:18:55.243Z,56.50
2023-11-18T07:21:22.584Z,56.50
2023-11-18T07:23:49.856Z,56.40
2023-11-18T07:26:17.101Z,56.10
2023-11-18T07:28:45.473Z,55.70
2023-11-18T07:31:13.579Z,55.70
2023-11-18T07:33:43.392Z,55.80
2023-11-18T07:36:12.912Z,55.50
2023-11-18T07:38:54.035Z,55.40
2023-11-18T07:41:31.775Z,55.10
2023-11-18T07:44:01.889Z,55.30
2023-11-18T07:46:32.539Z,55.40
2023-11-18T07:49:03.019Z,55.00
2023-11-18T07:51:30.533Z,54.40
2023-11-18T07:53:58.245Z,54.20
2023-11-18T07:56:25.575Z,54.00
2023-11-18T07:58:54.002Z,53.60
2023-11-18T08:01:22.903Z,53.40
2023-11-18T08:03:52.544Z,53.30
2023-11-18T08:06:20.294Z,53.20
2023-11-18T08:08:49.464Z,52.60
2023-11-18T08:11:16.999Z,52.10
2023-11-18T08:13:45.209Z,51.70
2023-11-18T08:16:16.835Z,51.70
2023-11-18T08:18:44.340Z,51.10
2023-11-18T08:21:13.638Z,51.10
2023-11-18T08:23:41.405Z,51.30
2023-11-18T08:26:12.567Z,51.40
2023-11-18T08:28:39.963Z,51.60
2023-11-18T08:31:07.868Z,52.10
2023-11-18T08:33:35.268Z,52.30
2023-11-18T08:36:03.092Z,51.90
2023-11-18T08:38:30.854Z,52.10
2023-11-18T08:40:58.468Z,52.40
2023-11-18T08:43:26.850Z,52.60
2023-11-18T08:45:54.290Z,53.70
2023-11-18T08:48:21.680Z,54.50
2023-11-18T08:50:49.099Z,54.50
2023-11-18T08:53:19.880Z,54.10
2023-11-18T08:55:55.698Z,53.80
2023-11-18T08:58:23.935Z,52.40
2023-11-18T09:00:54.210Z,52.10
2023-11-18T09:03:26.835Z,51.70
2023-11-18T09:05:59.967Z,52.70
2023-11-18T09:08:39.539Z,53.20
2023-11-18T09:11:09.529Z,51.10
2023-11-18T09:13:37.298Z,50.20
2023-11-18T09:16:11.228Z,48.70
2023-11-18T09:18:46.311Z,47.60
2023-11-18T09:21:20.717Z,48.20
2023-11-18T09:23:50.823Z,48.80
2023-11-18T09:26:19.129Z,47.50
2023-11-18T09:28:47.088Z,47.40
2023-11-18T09:31:14.392Z,48.50
2023-11-18T09:33:48.462Z,49.80
2023-11-18T09:36:16.026Z,49.50
2023-11-18T09:38:44.895Z,49.90
2023-11-18T09:41:12.991Z,49.90
2023-11-18T09:43:46.570Z,48.60
2023-11-18T09:46:20.404Z,48.20
2023-11-18T09:49:03.132Z,48.80
2023-11-18T09:51:39.348Z,47.50
2023-11-18T09:54:34.521Z,46.50
2023-11-18T09:57:11.358Z,46.10
2023-11-18T10:00:00.548Z,45.00
2023-11-18T10:02:31.011Z,44.40
2023-11-18T10:05:01.803Z,43.90
2023-11-18T10:07:34.363Z,43.30
2023-11-18T10:10:03.392Z,43.20
2023-11-18T10:12:31.174Z,42.90
2023-11-18T10:15:00.037Z,43.20
2023-11-18T10:17:28.829Z,43.50
2023-11-18T10:20:14.350Z,43.40
2023-11-18T10:22:42.378Z,43.70
2023-11-18T10:25:09.913Z,42.90
2023-11-18T10:27:37.271Z,42.50
2023-11-18T10:30:06.200Z,42.60
2023-11-18T10:32:37.494Z,42.00
2023-11-18T10:35:11.419Z,41.40
2023-11-18T10:37:44.830Z,41.20
2023-11-18T10:40:16.208Z,41.60
2023-11-18T10:42:50.205Z,41.20
2023-11-18T10:45:28.820Z,41.90
2023-11-18T10:47:58.818Z,41.50
2023-11-18T10:50:33.368Z,41.40
2023-11-18T10:53:06.611Z,41.20
2023-11-18T10:55:41.501Z,41.90
2023-11-18T10:58:09.720Z,42.40
2023-11-18T11:00:50.719Z,42.10
2023-11-18T11:03:19.870Z,41.00
2023-11-18T11:05:47.469Z,39.40
2023-11-18T11:08:24.552Z,38.40
2023-11-18T11:11:00.051Z,36.90
2023-11-18T11:13:30.770Z,37.00
2023-11-18T11:15:59.140Z,35.60
2023-11-18T11:18:30.136Z,35.30
2023-11-18T11:21:20.963Z,34.70
2023-11-18T11:24:01.090Z,32.00
2023-11-18T11:26:59.709Z,33.70
2023-11-18T11:29:48.807Z,34.90
2023-11-18T11:32:33.460Z,35.40
2023-11-18T11:35:09.593Z,34.60
2023-11-18T11:37:39.020Z,33.00
2023-11-18T11:40:11.884Z,32.10
2023-11-18T11:42:43.971Z,31.00
2023-11-18T11:45:21.620Z,31.60
2023-11-18T11:47:52.296Z,32.60
2023-11-18T11:50:34.452Z,33.00
2023-11-18T11:53:18.333Z,31.80
2023-11-18T11:55:48.002Z,31.70
2023-11-18T11:58:38.264Z,32.20
2023-11-18T12:01:24.920Z,32.40
2023-11-18T12:03:59.463Z,32.30
2023-11-18T12:06:29.338Z,31.40
2023-11-18T12:08:58.549Z,29.60
2023-11-18T12:11:28.874Z,29.10
2023-11-18T12:14:22.661Z,28.80
2023-11-18T12:17:11.726Z,28.80
2023-11-18T12:19:48.640Z,29.60
2023-11-18T12:22:19.746Z,29.50
2023-11-18T12:25:08.233Z,27.10
2023-11-18T12:27:41.722Z,27.30
2023-11-18T12:30:19.407Z,28.80
2023-11-18T12:33:03.516Z,29.30
2023-11-18T12:35:32.152Z,27.60
2023-11-18T12:38:25.738Z,27.30
2023-11-18T12:40:57.735Z,30.30
2023-11-18T12:43:53.036Z,30.90
2023-11-18T12:46:43.829Z,31.30
2023-11-18T12:49:16.456Z,29.50
2023-11-18T12:51:47.248Z,28.70
2023-11-18T12:54:14.646Z,29.40
2023-11-18T12:56:45.446Z,30.20
2023-11-18T12:59:14.401Z,30.70
2023-11-18T13:01:43.353Z,31.30
2023-11-18T13:04:10.904Z,31.70
2023-11-18T13:06:38.714Z,32.70
2023-11-18T13:09:11.113Z,33.40
2023-11-18T13:11:43.913Z,33.50
2023-11-18T13:14:13.515Z,34.00
2023-11-18T13:16:42.644Z,34.20
2023-11-18T13:19:11.446Z,34.60
2023-11-18T13:21:38.728Z,33.60
2023-11-18T13:24:06.536Z,33.20
2023-11-18T13:26:34.674Z,33.10
2023-11-18T13:29:03.855Z,32.10
2023-11-18T13:31:32.195Z,32.90
2023-11-18T13:34:01.656Z,33.50
2023-11-18T13:36:29.364Z,33.10
2023-11-18T13:38:56.664Z,32.80
2023-11-18T13:41:32.611Z,32.10
2023-11-18T13:44:00.027Z,30.90
2023-11-18T13:46:27.523Z,30.60
2023-11-18T13:48:55.152Z,29.30
2023-11-18T13:51:23.216Z,28.10
2023-11-18T13:53:51.040Z,28.30
2023-11-18T13:56:21.597Z,28.00
2023-11-18T13:58:49.173Z,28.10
2023-11-18T14:01:17.490Z,28.50
2023-11-18T14:03:49.137Z,27.90
2023-11-18T14:06:18.799Z,28.00
2023-11-18T14:08:46.289Z,28.60
2023-11-18T14:11:17.880Z,29.60
2023-11-18T14:13:46.336Z,27.50
2023-11-18T14:16:14.300Z,28.20
2023-11-18T14:18:43.361Z,29.00
2023-11-18T14:21:11.165Z,31.00
2023-11-18T14:23:39.358Z,31.60
2023-11-18T14:26:09.272Z,30.10
2023-11-18T14:28:36.636Z,30.90
2023-11-18T14:31:09.278Z,31.10
2023-11-18T14:33:36.831Z,30.80
2023-11-18T14:36:06.742Z,31.20
2023-11-18T14:38:35.760Z,31.30
2023-11-18T14:41:04.272Z,30.60
2023-11-18T14:43:33.069Z,30.10
2023-11-18T14:46:00.565Z,31.40
2023-11-18T14:48:28.164Z,32.60
2023-11-18T14:50:58.261Z,33.50
2023-11-18T14:53:26.387Z,33.10
2023-11-18T14:55:53.854Z,30.30
2023-11-18T14:58:21.368Z,30.80
2023-11-18T15:00:48.997Z,32.60
2023-11-18T15:03:17.200Z,31.50
2023-11-18T15:05:47.965Z,30.60
2023-11-18T15:08:17.383Z,31.00
2023-11-18T15:10:45.690Z,31.70
2023-11-18T15:13:19.400Z,31.60
2023-11-18T15:15:49.731Z,32.70
2023-11-18T15:18:19.162Z,33.10
2023-11-18T15:20:50.387Z,31.60
2023-11-18T15:23:18.975Z,29.00
2023-11-18T15:25:47.002Z,28.70
2023-11-18T15:28:15.567Z,28.80
2023-11-18T15:30:45.424Z,28.80
2023-11-18T15:33:14.895Z,29.10
2023-11-18T15:35:42.443Z,29.40
2023-11-18T15:38:10.480Z,29.90
2023-11-18T15:40:38.214Z,30.00
2023-11-18T15:43:07.118Z,30.50
2023-11-18T15:45:34.404Z,30.70
2023-11-18T15:48:06.506Z,31.00
2023-11-18T15:50:39.100Z,30.40
2023-11-18T15:53:09.463Z,30.30
2023-11-18T15:55:39.747Z,30.50
2023-11-18T15:58:07.196Z,30.60
2023-11-18T16:00:34.815Z,31.30
2023-11-18T16:03:03.303Z,33.90
2023-11-18T16:05:36.043Z,34.40
2023-11-18T16:08:05.578Z,35.30
2023-11-18T16:10:33.414Z,35.00
2023-11-18T16:13:03.591Z,34.50
2023-11-18T16:15:33.162Z,33.40
2023-11-18T16:18:02.130Z,32.50
2023-11-18T16:20:34.992Z,32.50
2023-11-18T16:23:04.468Z,32.60
2023-11-18T16:25:32.563Z,33.20
2023-11-18T16:28:01.220Z,33.30
2023-11-18T16:30:31.538Z,33.50
2023-11-18T16:33:02.323Z,33.80
2023-11-18T16:35:31.422Z,34.40
2023-11-18T16:38:01.768Z,34.50
2023-11-18T16:40:29.991Z,34.40
2023-11-18T16:43:00.145Z,34.70
2023-11-18T16:45:28.203Z,34.80
2023-11-18T16:47:56.307Z,35.20
2023-11-18T16:50:25.806Z,35.20
2023-11-18T16:52:53.959Z,35.20
2023-11-18T16:55:24.134Z,35.20
2023-11-18T16:57:54.431Z,35.60
2023-11-18T17:00:26.587Z,35.90
2023-11-18T17:02:58.004Z,36.00
2023-11-18T17:05:31.199Z,36.30
2023-11-18T17:08:00.621Z,36.70
2023-11-18T17:10:28.549Z,37.00
2023-11-18T17:12:57.756Z,37.60
2023-11-18T17:15:25.389Z,38.00
2023-11-18T17:18:03.389Z,39.80
2023-11-18T17:20:32.432Z,40.20
2023-11-18T17:23:00.025Z,41.80
2023-11-18T17:25:27.461Z,42.00
2023-11-18T17:27:54.906Z,41.30
2023-11-18T17:30:23.216Z,40.90
2023-11-18T17:32:53.818Z,40.50
2023-11-18T17:35:22.696Z,40.20
2023-11-18T17:37:50.607Z,39.10
2023-11-18T17:40:19.509Z,38.90
2023-11-18T17:42:46.794Z,38.50
2023-11-18T17:45:15.600Z,38.40
2023-11-18T17:47:44.976Z,38.20
2023-11-18T17:50:15.625Z,38.20
2023-11-18T17:52:48.588Z,38.30
2023-11-18T17:55:16.504Z,38.30
2023-11-18T17:57:51.467Z,38.40
2023-11-18T18:00:24.671Z,38.50
2023-11-18T18:02:53.791Z,38.20
2023-11-18T18:05:22.122Z,38.30
2023-11-18T18:07:49.590Z,38.50
2023-11-18T18:10:17.675Z,38.60
2023-11-18T18:12:48.303Z,38.90
2023-11-18T18:15:17.594Z,38.60
2023-11-18T18:17:45.032Z,38.60
2023-11-18T18:20:13.818Z,38.60
2023-11-18T18:22:42.393Z,38.40
2023-11-18T18:25:11.230Z,38.50
2023-11-18T18:27:39.952Z,38.60
2023-11-18T18:30:08.359Z,38.50
2023-11-18T18:32:35.915Z,38.40
2023-11-18T18:35:03.728Z,38.50
2023-11-18T18:37:31.203Z,38.60
2023-11-18T18:39:58.803Z,38.60
2023-11-18T18:42:26.305Z,38.70
2023-11-18T18:44:56.935Z,39.30
2023-11-18T18:47:26.983Z,39.10
2023-11-18T18:49:56.659Z,39.00
2023-11-18T18:52:23.923Z,38.60
2023-11-18T18:54:51.398Z,38.80
2023-11-18T18:57:19.501Z,38.70
2023-11-18T18:59:46.862Z,38.60
2023-11-18T19:02:14.559Z,38.60
2023-11-18T19:04:42.108Z,38.80
2023-11-18T19:07:11.150Z,39.10
2023-11-18T19:09:38.594Z,39.20
2023-11-18T19:12:06.311Z,39.20
2023-11-18T19:14:34.494Z,39.80
2023-11-18T19:17:05.077Z,39.70
2023-11-18T19:19:32.645Z,39.70
2023-11-18T19:22:01.754Z,39.70
2023-11-18T19:24:29.348Z,40.00
2023-11-18T19:26:57.825Z,40.40
2023-11-18T19:29:25.503Z,40.50
2023-11-18T19:31:52.943Z,40.80
2023-11-18T19:34:22.815Z,40.50
2023-11-18T19:36:50.350Z,40.70
2023-11-18T19:39:18.359Z,40.90
2023-11-18T19:41:45.742Z,41.00
2023-11-18T19:44:13.267Z,41.20
2023-11-18T19:46:40.962Z,41.00
2023-11-18T19:49:11.001Z,41.30
2023-11-18T19:51:38.504Z,41.00
2023-11-18T19:54:05.726Z,40.70
2023-11-18T19:56:33.108Z,41.10
2023-11-18T19:59:00.435Z,40.90
2023-11-18T20:01:27.759Z,40.90
2023-11-18T20:03:55.220Z,41.10
2023-11-18T20:06:22.704Z,41.20
2023-11-18T20:08:50.299Z,41.80
2023-11-18T20:11:18.063Z,41.90
2023-11-18T20:13:45.486Z,42.00
2023-11-18T20:16:13.214Z,42.00
2023-11-18T20:18:40.575Z,42.00
2023-11-18T20:21:09.581Z,42.30
2023-11-18T20:23:37.138Z,42.40
2023-11-18T20:26:06.104Z,42.70
2023-11-18T20:28:35.519Z,42.70
2023-11-18T20:31:05.127Z,42.60
2023-11-18T20:33:32.573Z,42.80
2023-11-18T20:36:00.270Z,43.00
2023-11-18T20:38:28.629Z,43.20
2023-11-18T20:40:56.040Z,43.20
2023-11-18T20:43:23.488Z,43.40
2023-11-18T20:45:50.961Z,43.40
2023-11-18T20:48:18.348Z,43.80
2023-11-18T20:50:52.488Z,43.90
2023-11-18T20:53:20.314Z,44.10
2023-11-18T20:55:48.461Z,44.10
2023-11-18T20:58:16.035Z,44.30
2023-11-18T21:00:44.059Z,44.30
2023-11-18T21:03:12.019Z,44.10
2023-11-18T21:05:39.637Z,44.30
2023-11-18T21:08:08.147Z,44.80
2023-11-18T21:10:35.491Z,44.90
2023-11-18T21:13:02.937Z,45.00
2023-11-18T21:15:30.304Z,44.90
2023-11-18T21:18:01.012Z,45.30
2023-11-18T21:20:29.229Z,45.50
2023-11-18T21:23:00.764Z,45.80
2023-11-18T21:25:28.159Z,45.00
2023-11-18T21:28:04.052Z,45.90
2023-11-18T21:30:33.621Z,45.50
2023-11-18T21:33:03.529Z,45.60
2023-11-18T21:35:30.979Z,45.40
2023-11-18T21:37:59.349Z,45.50
2023-11-18T21:40:30.139Z,45.70
2023-11-18T21:42:59.235Z,45.60
2023-11-18T21:45:29.231Z,45.40
2023-11-18T21:48:01.159Z,45.90
2023-11-18T21:50:33.597Z,46.00
2023-11-18T21:53:03.997Z,45.70
2023-11-18T21:55:31.484Z,46.40
2023-11-18T21:57:59.332Z,46.10
2023-11-18T22:00:27.596Z,46.30
2023-11-18T22:02:55.535Z,46.80
2023-11-18T22:05:26.631Z,47.00
2023-11-18T22:07:55.028Z,47.20
2023-11-18T22:10:23.514Z,47.30
2023-11-18T22:12:54.122Z,47.20
2023-11-18T22:15:23.611Z,47.10
2023-11-18T22:17:53.256Z,47.10
2023-11-18T22:20:26.113Z,47.20
2023-11-18T22:22:53.915Z,47.50
2023-11-18T22:25:21.797Z,47.60
2023-11-18T22:27:49.400Z,47.60
2023-11-18T22:30:17.621Z,47.60
2023-11-18T22:32:45.315Z,47.80
2023-11-18T22:35:13.192Z,47.80
2023-11-18T22:37:40.539Z,48.10
2023-11-18T22:40:09.861Z,47.90
2023-11-18T22:42:39.141Z,47.90
2023-11-18T22:45:17.332Z,48.20
2023-11-18T22:47:46.681Z,49.30
2023-11-18T22:50:14.512Z,48.50
2023-11-18T22:52:41.926Z,49.30
2023-11-18T22:57:41.666Z,49.00
2023-11-18T23:00:33.676Z,49.90
2023-11-18T23:03:01.534Z,49.10
2023-11-18T23:05:29.592Z,49.50
2023-11-18T23:07:59.739Z,48.80
2023-11-18T23:10:27.064Z,48.80
2023-11-18T23:12:56.435Z,49.00
2023-11-18T23:15:25.921Z,48.70
2023-11-18T23:17:53.870Z,47.60
2023-11-18T23:20:22.685Z,47.60
2023-11-18T23:22:52.175Z,48.40
2023-11-18T23:25:20.670Z,48.40
2023-11-18T23:27:48.264Z,48.70
2023-11-18T23:30:16.190Z,48.50
2023-11-18T23:32:43.790Z,48.00
2023-11-18T23:35:11.347Z,48.10
2023-11-18T23:37:38.719Z,48.10
2023-11-18T23:40:11.375Z,48.00
2023-11-18T23:42:45.399Z,48.10
2023-11-18T23:45:15.066Z,48.00
2023-11-18T23:47:43.272Z,48.00
2023-11-18T23:50:12.531Z,48.30
2023-11-18T23:52:39.900Z,47.80
2023-11-18T23:55:13.842Z,48.20
2023-11-18T23:57:42.210Z,48.40
